Time;durP1;ratioP1;P1;durP2;ratioP2;P2;SDS_P1;SDS_P2;PMS_P1;PMS_P2;Temp;Humidity;BMP_temperature;BMP_pressure;BME280_temperature;BME280_humidity;BME280_pressure;Samples;Min_cycle;Max_cycle;Signal;HPM_P1;HPM_P2
2023/10/18 00:00:59;;;;;;;1.73;1.08;;;;;;;;;;5055179;28;20036;-72
2023/10/18 00:03:29;;;;;;;2.10;1.05;;;;;;;;;;5054442;28;20025;-72
2023/10/18 00:05:56;;;;;;;3.70;1.00;;;;;;;;;;5054492;28;20017;-72
2023/10/18 00:08:23;;;;;;;2.05;0.95;;;;;;;;;;5054595;28;20025;-72
2023/10/18 00:10:56;;;;;;;4.22;1.00;;;;;;;;;;5054488;28;20020;-72
2023/10/18 00:13:22;;;;;;;4.28;0.85;;;;;;;;;;5054076;28;20025;-72
2023/10/18 00:15:53;;;;;;;4.63;1.00;;;;;;;;;;5054435;28;20036;-72
2023/10/18 00:18:20;;;;;;;2.60;1.13;;;;;;;;;;5054219;28;20481;-72
2023/10/18 00:20:47;;;;;;;2.20;1.02;;;;;;;;;;5054483;28;20044;-72
2023/10/18 00:23:14;;;;;;;2.35;0.90;;;;;;;;;;5054133;28;20039;-72
2023/10/18 00:25:41;;;;;;;4.20;1.10;;;;;;;;;;5053312;28;20032;-72
2023/10/18 00:28:10;;;;;;;4.75;1.25;;;;;;;;;;5052556;28;20029;-72
2023/10/18 00:30:36;;;;;;;3.17;1.00;;;;;;;;;;5054024;28;20021;-72
2023/10/18 00:33:03;;;;;;;3.22;1.00;;;;;;;;;;5054048;28;20496;-72
2023/10/18 00:35:31;;;;;;;1.80;0.80;;;;;;;;;;5053946;28;20031;-72
2023/10/18 00:37:58;;;;;;;4.50;1.20;;;;;;;;;;5053977;28;20036;-72
2023/10/18 00:42:55;;;;;;;3.22;1.02;;;;;;;;;;5053673;28;20047;-72
2023/10/18 00:45:22;;;;;;;4.38;1.20;;;;;;;;;;5053990;28;20013;-72
2023/10/18 00:47:51;;;;;;;3.22;1.10;;;;;;;;;;5053716;28;20037;-72
2023/10/18 00:50:27;;;;;;;3.58;1.10;;;;;;;;;;5054197;28;20021;-72
2023/10/18 00:52:54;;;;;;;4.55;1.30;;;;;;;;;;5053558;28;20029;-72
2023/10/18 00:55:20;;;;;;;3.85;1.20;;;;;;;;;;5053849;28;20035;-72
2023/10/18 00:57:47;;;;;;;4.70;1.40;;;;;;;;;;5052994;28;20051;-72
2023/10/18 01:00:19;;;;;;;7.05;1.70;;;;;;;;;;5053467;28;20091;-72
2023/10/18 01:02:49;;;;;;;3.70;1.65;;;;;;;;;;5053261;28;20540;-72
2023/10/18 01:05:15;;;;;;;3.53;1.63;;;;;;;;;;5053340;28;20486;-72
2023/10/18 01:07:43;;;;;;;4.50;1.40;;;;;;;;;;5053219;28;20025;-73
2023/10/18 01:10:09;;;;;;;7.85;1.50;;;;;;;;;;5053351;28;20029;-72
2023/10/18 01:12:37;;;;;;;3.85;1.60;;;;;;;;;;5052935;28;20504;-72
2023/10/18 01:15:06;;;;;;;4.82;1.58;;;;;;;;;;5053433;28;20051;-72
2023/10/18 01:17:35;;;;;;;5.30;1.63;;;;;;;;;;5053247;28;20381;-72
2023/10/18 01:20:46;;;;;;;4.72;1.42;;;;;;;;;;5053071;28;20024;-72
2023/10/18 01:22:52;;;;;;;4.85;1.55;;;;;;;;;;5046767;28;20395;-72
2023/10/18 01:25:18;;;;;;;5.47;1.50;;;;;;;;;;5052674;28;20037;-72
2023/10/18 01:27:45;;;;;;;3.58;1.55;;;;;;;;;;5052763;28;20025;-72
2023/10/18 01:30:16;;;;;;;2.38;1.10;;;;;;;;;;5053218;28;20086;-72
2023/10/18 01:32:44;;;;;;;7.15;1.50;;;;;;;;;;5053065;28;20025;-72
2023/10/18 01:35:13;;;;;;;2.30;1.10;;;;;;;;;;5053184;28;20021;-72
2023/10/18 01:37:39;;;;;;;6.72;1.00;;;;;;;;;;5052958;28;20035;-72
2023/10/18 01:40:55;;;;;;;3.97;1.20;;;;;;;;;;5052372;28;20021;-72
2023/10/18 01:42:56;;;;;;;2.03;0.90;;;;;;;;;;5052130;28;20045;-72
2023/10/18 01:45:23;;;;;;;2.20;1.02;;;;;;;;;;5053352;28;20024;-72
2023/10/18 01:47:51;;;;;;;6.88;1.00;;;;;;;;;;5053136;28;20021;-72
2023/10/18 01:50:18;;;;;;;2.47;0.90;;;;;;;;;;5052638;28;20040;-72
2023/10/18 01:52:45;;;;;;;4.43;1.02;;;;;;;;;;5052663;28;20029;-72
2023/10/18 01:55:12;;;;;;;1.75;1.00;;;;;;;;;;5052361;28;20031;-72
2023/10/18 01:57:43;;;;;;;3.03;1.17;;;;;;;;;;5052346;28;20055;-72
2023/10/18 02:00:20;;;;;;;4.25;1.02;;;;;;;;;;5052471;28;20029;-72
2023/10/18 02:02:47;;;;;;;4.57;1.40;;;;;;;;;;5052706;28;20029;-72
2023/10/18 02:05:16;;;;;;;4.25;1.30;;;;;;;;;;5052520;28;20021;-72
2023/10/18 02:07:47;;;;;;;5.88;1.10;;;;;;;;;;5052598;28;20021;-72
2023/10/18 02:10:23;;;;;;;7.65;1.25;;;;;;;;;;5052168;28;20023;-72
2023/10/18 02:12:50;;;;;;;11.13;1.48;;;;;;;;;;5052466;28;20037;-72
2023/10/18 02:15:16;;;;;;;3.33;1.00;;;;;;;;;;5052716;28;20032;-72
2023/10/18 02:17:45;;;;;;;2.55;0.90;;;;;;;;;;5052305;28;20055;-72
2023/10/18 02:20:25;;;;;;;2.88;0.90;;;;;;;;;;5052396;28;20021;-72
2023/10/18 02:22:53;;;;;;;4.20;0.80;;;;;;;;;;5052807;28;20090;-72
2023/10/18 02:28:08;;;;;;;2.97;0.93;;;;;;;;;;5052127;28;20027;-72
2023/10/18 02:30:38;;;;;;;1.90;0.77;;;;;;;;;;5052370;28;20032;-72
2023/10/18 02:33:05;;;;;;;3.47;0.70;;;;;;;;;;5052138;28;20023;-72
2023/10/18 02:35:33;;;;;;;1.95;0.80;;;;;;;;;;5052303;28;20025;-72
2023/10/18 02:38:08;;;;;;;2.53;0.77;;;;;;;;;;5051810;28;20047;-72
2023/10/18 02:40:38;;;;;;;4.93;0.80;;;;;;;;;;5052470;28;20032;-72
2023/10/18 02:43:14;;;;;;;2.00;0.68;;;;;;;;;;5052139;28;20478;-72
2023/10/18 02:45:50;;;;;;;3.97;0.80;;;;;;;;;;5052221;28;20055;-72
2023/10/18 02:48:22;;;;;;;2.97;0.65;;;;;;;;;;5052113;28;20017;-72
2023/10/18 02:50:49;;;;;;;1.77;0.80;;;;;;;;;;5052989;28;20041;-72
2023/10/18 02:53:17;;;;;;;8.05;0.80;;;;;;;;;;5055470;28;20029;-72
2023/10/18 02:55:55;;;;;;;1.05;0.77;;;;;;;;;;5056084;28;20071;-72
2023/10/18 02:58:32;;;;;;;4.30;0.90;;;;;;;;;;5055600;28;20052;-72
2023/10/18 03:01:05;;;;;;;2.22;0.70;;;;;;;;;;5055731;28;20043;-72
2023/10/18 03:03:34;;;;;;;4.00;1.40;;;;;;;;;;5055543;28;20031;-72
2023/10/18 03:06:14;;;;;;;2.70;0.90;;;;;;;;;;5055981;28;20029;-72
2023/10/18 03:08:49;;;;;;;2.70;0.80;;;;;;;;;;5055100;28;20025;-72
2023/10/18 03:11:17;;;;;;;2.58;0.82;;;;;;;;;;5055557;28;20033;-72
2023/10/18 03:13:44;;;;;;;3.30;0.95;;;;;;;;;;5055709;28;20035;-72
2023/10/18 03:18:44;;;;;;;5.03;1.10;;;;;;;;;;5055415;28;20029;-72
2023/10/18 03:21:21;;;;;;;2.03;0.90;;;;;;;;;;5055247;28;20021;-72
2023/10/18 03:23:51;;;;;;;1.25;0.73;;;;;;;;;;5055573;28;20039;-72
2023/10/18 03:26:22;;;;;;;3.53;1.13;;;;;;;;;;5055349;28;20491;-72
2023/10/18 03:28:52;;;;;;;27.98;1.85;;;;;;;;;;5055084;28;20025;-72
2023/10/18 03:31:28;;;;;;;2.63;1.10;;;;;;;;;;5055159;28;20017;-72
2023/10/18 03:34:08;;;;;;;5.68;1.08;;;;;;;;;;5055103;28;20020;-72
2023/10/18 03:36:45;;;;;;;3.70;1.20;;;;;;;;;;5054884;28;20037;-72
2023/10/18 03:39:15;;;;;;;2.42;0.90;;;;;;;;;;5054966;28;20519;-72
2023/10/18 03:41:42;;;;;;;0.70;0.70;;;;;;;;;;5053916;28;20031;-72
2023/10/18 03:44:09;;;;;;;2.05;0.77;;;;;;;;;;5054919;28;20105;-72
2023/10/18 03:46:47;;;;;;;3.30;0.82;;;;;;;;;;5054814;28;20033;-72
2023/10/18 03:49:36;;;;;;;2.15;1.00;;;;;;;;;;5055365;28;20021;-72
2023/10/18 03:52:27;;;;;;;4.50;0.90;;;;;;;;;;5054575;28;20019;-72
2023/10/18 03:57:29;;;;;;;1.30;0.73;;;;;;;;;;5054599;28;20055;-72
2023/10/18 03:59:58;;;;;;;2.25;0.75;;;;;;;;;;5054651;28;20029;-72
2023/10/18 04:02:27;;;;;;;2.47;0.88;;;;;;;;;;5054352;28;20051;-72
2023/10/18 04:04:58;;;;;;;17.58;1.67;;;;;;;;;;5054452;28;20019;-72
2023/10/18 04:07:26;;;;;;;5.90;1.15;;;;;;;;;;5054541;28;20358;-73
2023/10/18 04:12:29;;;;;;;4.35;0.80;;;;;;;;;;5054745;28;20047;-72
2023/10/18 04:14:56;;;;;;;2.53;1.00;;;;;;;;;;5054294;28;20482;-73
2023/10/18 04:17:36;;;;;;;2.38;0.75;;;;;;;;;;5054434;28;20142;-72
2023/10/18 04:20:23;;;;;;;6.78;1.00;;;;;;;;;;5053953;28;20024;-72
2023/10/18 04:22:52;;;;;;;6.53;1.10;;;;;;;;;;5054538;28;20033;-72
2023/10/18 04:25:31;;;;;;;7.35;2.05;;;;;;;;;;5054190;28;20392;-72
2023/10/18 04:27:58;;;;;;;21.13;1.80;;;;;;;;;;5053974;28;20466;-73
2023/10/18 04:30:25;;;;;;;9.18;1.40;;;;;;;;;;5054296;28;20028;-73
2023/10/18 04:32:59;;;;;;;8.68;1.20;;;;;;;;;;5054005;28;20485;-72
2023/10/18 04:35:29;;;;;;;6.20;1.40;;;;;;;;;;5053796;28;20485;-72
2023/10/18 04:37:55;;;;;;;4.10;1.23;;;;;;;;;;5053842;28;20500;-72
2023/10/18 04:40:22;;;;;;;6.57;1.40;;;;;;;;;;5053869;28;20021;-72
2023/10/18 04:42:55;;;;;;;6.28;1.40;;;;;;;;;;5054070;28;20035;-72
2023/10/18 04:45:26;;;;;;;7.32;1.20;;;;;;;;;;5053749;28;20021;-72
2023/10/18 04:48:06;;;;;;;;;;;;;;;;;;5053832;28;20035;-72
2023/10/18 04:50:39;;;;;;;11.70;1.52;;;;;;;;;;5053747;28;19915;-72
2023/10/18 04:53:14;;;;;;;14.77;1.60;;;;;;;;;;5053690;28;20032;-72
2023/10/18 04:55:41;;;;;;;12.80;1.45;;;;;;;;;;5053430;28;20017;-72
2023/10/18 04:58:07;;;;;;;7.53;1.48;;;;;;;;;;5053205;28;20053;-73
2023/10/18 05:00:50;;;;;;;7.22;1.55;;;;;;;;;;5053488;28;20466;-72
2023/10/18 05:03:17;;;;;;;13.40;1.80;;;;;;;;;;5053230;28;20025;-72
2023/10/18 05:05:52;;;;;;;6.18;1.30;;;;;;;;;;5052233;28;20029;-72
2023/10/18 05:08:18;;;;;;;6.88;1.50;;;;;;;;;;5053416;28;20186;-72
2023/10/18 05:10:45;;;;;;;7.35;1.83;;;;;;;;;;5053322;28;20039;-72
2023/10/18 05:13:45;;;;;;;9.65;2.05;;;;;;;;;;5052793;28;20021;-72
2023/10/18 05:16:05;;;;;;;7.88;2.10;;;;;;;;;;5052022;28;20033;-72
2023/10/18 05:18:31;;;;;;;10.75;2.30;;;;;;;;;;5052783;28;20039;-72
2023/10/18 05:20:58;;;;;;;8.00;2.03;;;;;;;;;;5053234;28;20025;-72
2023/10/18 05:23:33;;;;;;;9.00;1.88;;;;;;;;;;5053096;28;20039;-72
2023/10/18 05:26:08;;;;;;;22.65;2.17;;;;;;;;;;5052993;28;20024;-72
2023/10/18 05:29:01;;;;;;;36.20;2.65;;;;;;;;;;5053058;28;20024;-72
2023/10/18 05:34:47;;;;;;;8.63;1.80;;;;;;;;;;5050654;28;20032;-73
2023/10/18 05:37:14;;;;;;;10.68;1.70;;;;;;;;;;5050616;28;20491;-72
2023/10/18 05:39:49;;;;;;;4.15;1.42;;;;;;;;;;5051073;28;20025;-72
2023/10/18 05:42:20;;;;;;;6.18;1.40;;;;;;;;;;5050663;28;20041;-72
2023/10/18 05:44:47;;;;;;;;;;;;;;;;;;5051198;28;20031;-72
2023/10/18 05:47:13;;;;;;;3.83;1.27;;;;;;;;;;5050335;28;19979;-72
2023/10/18 05:49:43;;;;;;;10.57;1.73;;;;;;;;;;5050842;28;20037;-72
2023/10/18 05:54:38;;;;;;;11.52;1.80;;;;;;;;;;5050711;28;20039;-73
2023/10/18 05:57:08;;;;;;;9.93;1.83;;;;;;;;;;5050007;28;20049;-72
2023/10/18 05:59:34;;;;;;;22.65;2.28;;;;;;;;;;5050663;28;20035;-73
2023/10/18 06:02:01;;;;;;;6.35;1.30;;;;;;;;;;5049788;28;20043;-72
2023/10/18 06:04:29;;;;;;;6.72;1.40;;;;;;;;;;5050406;28;20148;-72
2023/10/18 06:07:04;;;;;;;7.68;1.48;;;;;;;;;;5050316;28;20390;-72
2023/10/18 06:09:44;;;;;;;9.18;2.30;;;;;;;;;;5044984;28;20028;-72
2023/10/18 06:12:13;;;;;;;15.45;2.28;;;;;;;;;;5049096;28;20031;-72
2023/10/18 06:14:40;;;;;;;4.88;1.48;;;;;;;;;;5057018;28;20028;-73
2023/10/18 06:17:12;;;;;;;5.25;1.45;;;;;;;;;;5051548;28;20035;-73
2023/10/18 06:19:41;;;;;;;15.30;2.55;;;;;;;;;;5050715;28;20021;-72
2023/10/18 06:24:52;;;;;;;7.68;2.35;;;;;;;;;;5052379;28;20481;-72
2023/10/18 06:27:18;;;;;;;13.20;2.70;;;;;;;;;;5054890;28;20393;-72
2023/10/18 06:29:45;;;;;;;11.90;2.90;;;;;;;;;;5053866;28;20024;-72
2023/10/18 06:32:15;;;;;;;4.97;1.90;;;;;;;;;;5055522;28;20029;-72
2023/10/18 06:34:45;;;;;;;13.93;2.33;;;;;;;;;;5056057;28;20028;-73
2023/10/18 06:37:20;;;;;;;8.23;2.55;;;;;;;;;;5054560;28;20037;-72
2023/10/18 06:39:59;;;;;;;8.98;2.42;;;;;;;;;;5053774;28;20063;-72
2023/10/18 06:42:28;;;;;;;7.93;2.40;;;;;;;;;;5045389;28;20037;-72
2023/10/18 06:44:55;;;;;;;20.50;2.40;;;;;;;;;;5043886;28;20074;-72
2023/10/18 06:47:30;;;;;;;11.82;2.63;;;;;;;;;;5055255;28;20033;-73
2023/10/18 06:50:03;;;;;;;7.55;1.95;;;;;;;;;;5055606;28;20025;-72
2023/10/18 06:52:40;;;;;;;6.18;1.58;;;;;;;;;;5054497;28;20036;-72
2023/10/18 06:55:07;;;;;;;10.27;2.30;;;;;;;;;;5044405;28;20017;-72
2023/10/18 06:57:36;;;;;;;5.45;2.30;;;;;;;;;;5035355;28;20067;-73
2023/10/18 07:00:07;;;;;;;9.02;2.20;;;;;;;;;;5046294;28;20021;-73
2023/10/18 07:02:34;;;;;;;9.02;2.10;;;;;;;;;;5053425;28;20033;-73
2023/10/18 07:05:00;;;;;;;8.88;2.22;;;;;;;;;;5042107;28;20029;-73
2023/10/18 07:07:27;;;;;;;12.63;2.80;;;;;;;;;;5050863;28;20025;-72
2023/10/18 07:09:54;;;;;;;9.15;2.30;;;;;;;;;;5054214;28;20033;-73
2023/10/18 07:12:26;;;;;;;10.93;2.33;;;;;;;;;;5040391;28;20023;-71
2023/10/18 07:14:53;;;;;;;16.65;3.13;;;;;;;;;;5052358;28;20519;-73
2023/10/18 07:17:24;;;;;;;13.50;3.95;;;;;;;;;;5055693;28;20059;-72
2023/10/18 07:19:55;;;;;;;12.23;2.55;;;;;;;;;;5053673;28;20404;-72
2023/10/18 07:22:39;;;;;;;12.07;3.10;;;;;;;;;;5054267;28;20035;-72
2023/10/18 07:25:08;;;;;;;9.93;2.55;;;;;;;;;;5054654;28;20021;-73
2023/10/18 07:27:41;;;;;;;8.48;3.10;;;;;;;;;;5049810;28;20013;-72
2023/10/18 07:30:14;;;;;;;9.00;2.80;;;;;;;;;;5053994;28;20023;-73
2023/10/18 07:32:41;;;;;;;9.27;2.75;;;;;;;;;;5054147;28;20025;-73
2023/10/18 07:35:26;;;;;;;8.52;2.75;;;;;;;;;;5054399;28;20031;-72
2023/10/18 07:37:54;;;;;;;8.57;2.55;;;;;;;;;;5053122;28;20748;-73
2023/10/18 07:40:21;;;;;;;9.32;2.28;;;;;;;;;;5051141;28;20029;-73
2023/10/18 07:42:51;;;;;;;7.68;2.17;;;;;;;;;;5032372;28;20098;-73
2023/10/18 07:45:19;;;;;;;6.47;2.13;;;;;;;;;;5038880;28;20027;-72
2023/10/18 07:47:45;;;;;;;8.63;2.28;;;;;;;;;;5052948;28;20051;-73
2023/10/18 07:52:56;;;;;;;10.05;2.30;;;;;;;;;;5053500;28;20018;-73
2023/10/18 07:55:23;;;;;;;23.08;3.42;;;;;;;;;;5052186;28;20474;-72
2023/10/18 07:57:50;;;;;;;11.88;2.60;;;;;;;;;;5049531;28;20059;-73
2023/10/18 08:00:22;;;;;;;12.18;2.13;;;;;;;;;;5051124;28;20027;-72
2023/10/18 08:02:52;;;;;;;8.65;2.00;;;;;;;;;;5053466;28;20045;-72
2023/10/18 08:05:21;;;;;;;14.70;2.17;;;;;;;;;;5049526;28;20013;-73
2023/10/18 08:07:52;;;;;;;7.28;2.20;;;;;;;;;;5043996;28;20474;-72
2023/10/18 08:10:23;;;;;;;7.32;2.22;;;;;;;;;;5047247;28;20021;-72
2023/10/18 08:15:50;;;;;;;11.52;2.83;;;;;;;;;;5052233;28;20649;-71
2023/10/18 08:18:17;;;;;;;8.65;2.83;;;;;;;;;;5048067;28;20029;-72
2023/10/18 08:26:03;;;;;;;7.15;2.47;;;;;;;;;;5052706;28;20500;-72
2023/10/18 08:28:39;;;;;;;8.40;2.55;;;;;;;;;;5052865;28;20032;-72
2023/10/18 08:31:15;;;;;;;13.38;2.90;;;;;;;;;;5052874;28;20025;-72
2023/10/18 08:33:42;;;;;;;7.60;2.17;;;;;;;;;;5053202;28;20031;-71
2023/10/18 08:36:18;;;;;;;15.27;2.85;;;;;;;;;;5052196;28;20039;-73
2023/10/18 08:38:44;;;;;;;14.40;3.13;;;;;;;;;;5051723;28;20037;-70
2023/10/18 08:41:17;;;;;;;14.82;3.20;;;;;;;;;;5052064;28;20031;-71
2023/10/18 08:43:59;;;;;;;11.13;3.20;;;;;;;;;;5051892;28;20039;-71
2023/10/18 08:46:26;;;;;;;21.80;3.50;;;;;;;;;;5041981;28;20501;-71
2023/10/18 08:48:56;;;;;;;13.18;3.33;;;;;;;;;;5051600;28;20021;-71
2023/10/18 08:51:26;;;;;;;10.70;2.72;;;;;;;;;;5052769;28;20043;-71
2023/10/18 08:53:55;;;;;;;12.60;3.20;;;;;;;;;;5051703;28;20043;-71
2023/10/18 08:56:29;;;;;;;10.25;3.03;;;;;;;;;;5047319;28;20019;-70
2023/10/18 08:58:58;;;;;;;10.15;2.55;;;;;;;;;;5052591;28;20025;-71
2023/10/18 09:01:25;;;;;;;7.38;2.80;;;;;;;;;;5050729;28;20047;-71
2023/10/18 09:03:52;;;;;;;12.32;2.70;;;;;;;;;;5052202;28;20029;-71
2023/10/18 09:06:40;;;;;;;9.80;2.35;;;;;;;;;;5050102;28;20021;-72
2023/10/18 09:09:07;;;;;;;10.65;2.67;;;;;;;;;;5049359;28;20039;-71
2023/10/18 09:11:36;;;;;;;8.10;2.30;;;;;;;;;;5032667;28;20025;-70
2023/10/18 09:14:12;;;;;;;10.00;2.90;;;;;;;;;;5043284;28;20023;-71
2023/10/18 09:16:42;;;;;;;9.85;2.78;;;;;;;;;;5052054;28;20033;-70
2023/10/18 09:19:09;;;;;;;13.90;3.00;;;;;;;;;;5050789;28;20029;-70
2023/10/18 09:21:36;;;;;;;10.82;2.85;;;;;;;;;;5051991;28;20033;-71
2023/10/18 09:24:06;;;;;;;10.93;3.30;;;;;;;;;;5051358;28;20037;-70
2023/10/18 09:26:40;;;;;;;14.40;3.43;;;;;;;;;;5045038;28;20037;-70
2023/10/18 09:29:08;;;;;;;11.55;2.42;;;;;;;;;;5046825;28;20025;-70
2023/10/18 09:31:36;;;;;;;11.85;3.03;;;;;;;;;;5049131;28;20027;-72
2023/10/18 09:34:09;;;;;;;15.63;3.65;;;;;;;;;;5049724;28;20032;-71
2023/10/18 09:36:43;;;;;;;16.65;3.90;;;;;;;;;;5052037;28;20033;-72
2023/10/18 09:39:10;;;;;;;10.43;3.38;;;;;;;;;;5049691;28;20033;-73
2023/10/18 09:41:39;;;;;;;13.85;3.75;;;;;;;;;;5049568;28;20029;-71
2023/10/18 09:44:06;;;;;;;12.38;3.75;;;;;;;;;;5040030;28;20039;-71
2023/10/18 09:46:36;;;;;;;16.05;4.03;;;;;;;;;;5051617;28;20397;-69
2023/10/18 09:49:05;;;;;;;15.18;3.78;;;;;;;;;;5051442;28;20028;-72
2023/10/18 09:51:32;;;;;;;15.13;3.80;;;;;;;;;;5049556;28;20025;-71
2023/10/18 09:53:59;;;;;;;11.38;3.72;;;;;;;;;;5051113;28;20035;-71
2023/10/18 09:56:28;;;;;;;16.92;2.90;;;;;;;;;;5051236;28;20500;-74
2023/10/18 09:59:05;;;;;;;15.30;3.05;;;;;;;;;;5051395;28;20036;-73
2023/10/18 10:04:21;;;;;;;8.50;2.70;;;;;;;;;;5048218;28;20043;-73
2023/10/18 10:06:53;;;;;;;10.10;3.30;;;;;;;;;;5042210;28;20036;-74
2023/10/18 10:09:28;;;;;;;12.77;3.17;;;;;;;;;;5050555;28;20021;-74
2023/10/18 10:11:54;;;;;;;13.35;3.42;;;;;;;;;;5051641;28;20053;-74
2023/10/18 10:14:24;;;;;;;8.77;2.78;;;;;;;;;;5051741;28;20027;-74
2023/10/18 10:17:07;;;;;;;11.65;3.05;;;;;;;;;;5051899;28;20033;-74
2023/10/18 10:19:40;;;;;;;9.23;3.25;;;;;;;;;;5051408;28;20028;-75
2023/10/18 10:22:07;;;;;;;6.55;2.20;;;;;;;;;;5050177;28;20018;-74
2023/10/18 10:24:42;;;;;;;8.25;2.40;;;;;;;;;;5051586;28;20036;-74
2023/10/18 10:30:19;;;;;;;4.88;1.60;;;;;;;;;;5050534;28;20024;-74
2023/10/18 10:32:46;;;;;;;7.63;2.15;;;;;;;;;;5051561;28;20037;-74
2023/10/18 10:35:17;;;;;;;4.50;1.60;;;;;;;;;;5050698;28;20021;-74
2023/10/18 10:37:47;;;;;;;5.38;1.70;;;;;;;;;;5050246;28;20043;-74
2023/10/18 10:40:35;;;;;;;7.10;2.10;;;;;;;;;;5051139;28;20041;-74
2023/10/18 10:43:08;;;;;;;12.90;2.25;;;;;;;;;;5051490;28;20025;-75
2023/10/18 10:48:37;;;;;;;9.00;3.03;;;;;;;;;;5051135;28;20025;-74
2023/10/18 10:53:43;;;;;;;10.48;3.15;;;;;;;;;;5051173;28;20496;-75
2023/10/18 10:56:17;;;;;;;10.65;3.50;;;;;;;;;;5049333;28;20035;-74
2023/10/18 10:58:45;;;;;;;12.38;3.33;;;;;;;;;;5050775;28;20040;-74
2023/10/18 11:01:13;;;;;;;14.55;3.92;;;;;;;;;;5050937;28;20021;-74
2023/10/18 11:03:53;;;;;;;19.52;3.17;;;;;;;;;;5050791;28;20484;-75
2023/10/18 11:06:23;;;;;;;10.55;3.10;;;;;;;;;;5050542;28;20039;-74
2023/10/18 11:08:52;;;;;;;11.82;3.75;;;;;;;;;;5050173;28;20023;-74
2023/10/18 11:11:22;;;;;;;13.95;3.53;;;;;;;;;;5050503;28;20033;-74
2023/10/18 11:13:49;;;;;;;7.72;2.45;;;;;;;;;;5052882;28;20033;-74
2023/10/18 11:16:17;;;;;;;6.95;2.42;;;;;;;;;;5053284;28;20025;-74
2023/10/18 11:18:48;;;;;;;9.52;2.70;;;;;;;;;;5054054;28;20036;-75
2023/10/18 11:21:19;;;;;;;9.63;2.70;;;;;;;;;;5054211;28;20249;-75
2023/10/18 11:23:46;;;;;;;;;;;;;;;;;;5054866;28;20028;-75
2023/10/18 11:26:24;;;;;;;12.23;3.33;;;;;;;;;;5054429;28;19904;-75
2023/10/18 11:28:55;;;;;;;10.65;3.00;;;;;;;;;;5054311;28;20035;-75
2023/10/18 11:31:26;;;;;;;9.43;3.38;;;;;;;;;;5054953;28;20021;-75
2023/10/18 11:34:05;;;;;;;17.08;3.95;;;;;;;;;;5053935;28;20396;-74
2023/10/18 11:36:32;;;;;;;8.18;2.63;;;;;;;;;;5054492;28;20022;-76
2023/10/18 11:39:18;;;;;;;9.05;2.95;;;;;;;;;;5054155;28;20029;-74
2023/10/18 11:41:56;;;;;;;8.68;2.40;;;;;;;;;;5062995;28;20021;-74
2023/10/18 11:44:27;;;;;;;9.55;3.03;;;;;;;;;;5073984;28;20021;-75
2023/10/18 11:47:00;;;;;;;6.80;2.55;;;;;;;;;;5073507;28;20098;-68
2023/10/18 11:49:42;;;;;;;6.78;2.35;;;;;;;;;;5073512;28;20031;-68
2023/10/18 11:52:21;;;;;;;6.05;1.88;;;;;;;;;;5073704;28;20398;-69
2023/10/18 11:54:52;;;;;;;8.07;2.20;;;;;;;;;;5073090;28;20028;-68
2023/10/18 11:57:39;;;;;;;5.22;1.92;;;;;;;;;;5073658;28;20051;-68
2023/10/18 12:02:47;;;;;;;5.55;1.42;;;;;;;;;;5068483;28;20029;-68
2023/10/18 12:05:23;;;;;;;5.38;1.55;;;;;;;;;;5052276;28;20036;-68
2023/10/18 12:07:49;;;;;;;5.00;1.50;;;;;;;;;;5053584;28;20025;-68
2023/10/18 12:10:17;;;;;;;2.78;1.65;;;;;;;;;;5053573;28;20037;-68
2023/10/18 12:12:49;;;;;;;3.63;1.30;;;;;;;;;;5071875;28;20024;-68
2023/10/18 12:15:16;;;;;;;6.13;1.27;;;;;;;;;;5073819;28;20042;-68
2023/10/18 12:17:45;;;;;;;5.90;1.30;;;;;;;;;;5072032;28;20041;-68
2023/10/18 12:20:13;;;;;;;6.63;1.38;;;;;;;;;;5062729;28;20031;-67
2023/10/18 12:22:42;;;;;;;3.85;1.60;;;;;;;;;;5053395;28;20017;-68
2023/10/18 12:25:09;;;;;;;3.70;1.23;;;;;;;;;;5053333;28;20076;-68
2023/10/18 12:27:35;;;;;;;4.35;1.23;;;;;;;;;;5053280;28;20033;-68
2023/10/18 12:30:09;;;;;;;4.18;1.00;;;;;;;;;;5053383;28;20496;-68
2023/10/18 12:32:50;;;;;;;2.85;1.20;;;;;;;;;;5052585;28;20039;-68
2023/10/18 12:35:19;;;;;;;3.38;1.13;;;;;;;;;;5051144;28;20017;-68
2023/10/18 12:37:46;;;;;;;4.55;1.27;;;;;;;;;;5051415;28;20596;-68
2023/10/18 12:40:39;;;;;;;7.38;1.55;;;;;;;;;;5052849;28;20021;-68
2023/10/18 12:43:05;;;;;;;4.40;1.77;;;;;;;;;;5052676;28;20029;-68
2023/10/18 12:45:42;;;;;;;6.20;1.67;;;;;;;;;;5052480;28;20029;-68
2023/10/18 12:48:14;;;;;;;5.10;1.50;;;;;;;;;;5052376;28;20033;-68
2023/10/18 12:50:45;;;;;;;6.57;1.75;;;;;;;;;;5052579;28;20032;-68
2023/10/18 12:55:57;;;;;;;2.75;1.52;;;;;;;;;;5052553;28;20036;-68
2023/10/18 12:58:30;;;;;;;5.38;1.42;;;;;;;;;;5052435;28;20060;-68
2023/10/18 13:01:06;;;;;;;5.15;1.60;;;;;;;;;;5052245;28;20031;-69
2023/10/18 13:03:45;;;;;;;5.05;1.88;;;;;;;;;;5052540;28;20031;-67
2023/10/18 13:06:15;;;;;;;4.82;1.60;;;;;;;;;;5052114;28;20028;-67
2023/10/18 13:08:55;;;;;;;6.00;1.58;;;;;;;;;;5052927;28;20017;-67
2023/10/18 13:12:27;;;;;;;7.47;1.65;;;;;;;;;;5052185;28;20037;-67
2023/10/18 13:14:29;;;;;;;6.78;1.90;;;;;;;;;;5035649;28;20033;-67
2023/10/18 13:16:56;;;;;;;5.68;1.98;;;;;;;;;;5035293;28;20028;-67
2023/10/18 13:19:27;;;;;;;5.57;1.90;;;;;;;;;;5052178;28;20029;-67
2023/10/18 13:21:54;;;;;;;6.90;1.88;;;;;;;;;;5052081;28;20035;-67
2023/10/18 13:26:52;;;;;;;4.05;1.40;;;;;;;;;;5052073;28;20501;-67
2023/10/18 13:31:46;;;;;;;5.70;1.45;;;;;;;;;;5050797;28;20474;-67
2023/10/18 13:34:18;;;;;;;5.22;1.70;;;;;;;;;;5051237;28;20033;-67
2023/10/18 13:36:52;;;;;;;3.55;1.73;;;;;;;;;;5051670;28;20043;-67
2023/10/18 13:39:20;;;;;;;7.95;1.70;;;;;;;;;;5051929;28;20033;-67
2023/10/18 13:41:47;;;;;;;4.85;1.67;;;;;;;;;;5050921;28;20023;-67
2023/10/18 13:44:20;;;;;;;6.57;1.98;;;;;;;;;;5050977;28;20631;-67
2023/10/18 13:46:47;;;;;;;2.70;1.48;;;;;;;;;;5051336;28;20031;-67
2023/10/18 13:49:17;;;;;;;4.63;1.50;;;;;;;;;;5051603;28;20024;-67
2023/10/18 13:51:45;;;;;;;4.97;1.85;;;;;;;;;;5049057;28;20029;-67
2023/10/18 13:54:14;;;;;;;6.10;1.92;;;;;;;;;;5051372;28;20024;-67
2023/10/18 13:56:41;;;;;;;6.22;1.90;;;;;;;;;;5051452;28;20041;-67
2023/10/18 13:59:08;;;;;;;6.15;2.47;;;;;;;;;;5049745;28;20070;-68
2023/10/18 14:01:34;;;;;;;4.18;1.73;;;;;;;;;;5030578;28;20021;-67
2023/10/18 14:04:01;;;;;;;8.07;2.60;;;;;;;;;;5049254;28;20481;-67
2023/10/18 14:06:32;;;;;;;6.38;1.98;;;;;;;;;;5050531;28;20379;-67
2023/10/18 14:08:59;;;;;;;5.82;2.03;;;;;;;;;;5051356;28;20029;-67
2023/10/18 14:11:25;;;;;;;8.57;2.00;;;;;;;;;;5051775;28;20024;-66
2023/10/18 14:13:55;;;;;;;6.32;1.90;;;;;;;;;;5051209;28;20029;-67
2023/10/18 14:16:22;;;;;;;4.75;1.75;;;;;;;;;;5051724;28;20020;-68
2023/10/18 14:18:51;;;;;;;4.95;1.83;;;;;;;;;;5051810;28;20037;-68
2023/10/18 14:21:19;;;;;;;8.80;1.70;;;;;;;;;;5051525;28;20025;-67
2023/10/18 14:23:47;;;;;;;5.25;1.75;;;;;;;;;;5051754;28;20551;-68
2023/10/18 14:26:17;;;;;;;7.13;1.90;;;;;;;;;;5060621;28;20024;-67
2023/10/18 14:28:46;;;;;;;6.60;1.70;;;;;;;;;;5058461;28;20025;-67
2023/10/18 14:31:13;;;;;;;4.30;1.77;;;;;;;;;;5050918;28;20545;-67
2023/10/18 14:33:40;;;;;;;4.00;1.73;;;;;;;;;;5050954;28;20051;-67
2023/10/18 14:36:10;;;;;;;8.15;2.08;;;;;;;;;;5050027;28;20029;-67
2023/10/18 14:38:38;;;;;;;3.00;1.30;;;;;;;;;;5050930;28;20383;-67
2023/10/18 14:41:08;;;;;;;3.83;1.60;;;;;;;;;;5051321;28;20051;-68
2023/10/18 14:43:35;;;;;;;4.20;1.70;;;;;;;;;;5051267;28;20036;-67
2023/10/18 14:46:02;;;;;;;4.78;2.08;;;;;;;;;;5051285;28;20389;-67
2023/10/18 14:48:29;;;;;;;12.95;1.70;;;;;;;;;;5054543;28;20039;-67
2023/10/18 14:50:55;;;;;;;12.50;2.35;;;;;;;;;;5054932;28;20039;-67
2023/10/18 14:53:23;;;;;;;8.27;3.10;;;;;;;;;;5055248;28;20047;-67
2023/10/18 14:55:49;;;;;;;53.10;4.65;;;;;;;;;;5055092;28;20063;-68
2023/10/18 14:58:15;;;;;;;12.07;5.03;;;;;;;;;;5053871;28;20204;-68
2023/10/18 15:00:45;;;;;;;13.88;7.30;;;;;;;;;;5054713;28;20035;-68
2023/10/18 15:03:12;;;;;;;17.42;8.20;;;;;;;;;;5054669;28;20036;-68
2023/10/18 15:05:38;;;;;;;18.02;8.63;;;;;;;;;;5055039;28;20028;-68
2023/10/18 15:08:05;;;;;;;14.55;7.05;;;;;;;;;;5054852;28;20062;-68
2023/10/18 15:10:32;;;;;;;18.52;8.93;;;;;;;;;;5055144;28;20028;-68
2023/10/18 15:12:59;;;;;;;26.88;11.88;;;;;;;;;;5054821;28;20033;-67
2023/10/18 15:15:27;;;;;;;28.08;13.90;;;;;;;;;;5055005;28;20074;-67
2023/10/18 15:17:58;;;;;;;49.17;23.55;;;;;;;;;;5054788;28;20370;-68
2023/10/18 15:20:31;;;;;;;;;;;;;;;;;;5055153;28;20088;-67
2023/10/18 15:22:57;;;;;;;21.13;8.88;;;;;;;;;;5054857;28;19953;-68
2023/10/18 15:25:24;;;;;;;15.32;7.75;;;;;;;;;;5054598;28;20021;-68
2023/10/18 15:27:52;;;;;;;18.17;9.32;;;;;;;;;;5054364;28;20024;-68
2023/10/18 15:30:19;;;;;;;27.05;12.25;;;;;;;;;;5054553;28;20021;-68
2023/10/18 15:32:45;;;;;;;22.15;11.13;;;;;;;;;;5055100;28;20047;-67
2023/10/18 15:35:15;;;;;;;20.10;10.07;;;;;;;;;;5054591;28;20031;-68
2023/10/18 15:37:45;;;;;;;15.20;7.70;;;;;;;;;;5054630;28;20029;-68
2023/10/18 15:40:15;;;;;;;14.90;7.32;;;;;;;;;;5054799;28;20275;-68
2023/10/18 15:42:42;;;;;;;12.48;6.78;;;;;;;;;;5054409;28;20489;-67
2023/10/18 15:45:12;;;;;;;17.05;6.72;;;;;;;;;;5053149;28;20029;-68
2023/10/18 15:47:42;;;;;;;14.15;7.35;;;;;;;;;;5054256;28;20013;-67
2023/10/18 15:50:08;;;;;;;23.08;7.30;;;;;;;;;;5054347;28;20033;-68
2023/10/18 15:52:36;;;;;;;12.55;6.20;;;;;;;;;;5054086;28;20028;-68
2023/10/18 15:55:13;;;;;;;14.35;6.93;;;;;;;;;;5053846;28;20397;-68